Terminal Aerodrome Forecast
Issued by NWS

Home | Current Version | Previous Version | Text Only | Print | Product List | Glossary On
Versions: 1 2 3 4 5 6 7 8 9 10 11 12 13 14 15 16 17 18 19 20 21
000
FTUS41 KPBZ 302011 AAA
TAFFKL
TAF AMD
KFKL 302011Z 3020/0118 22010KT P6SM VCTS BKN035CB
      TEMPO 3020/3023 3SM TSRA BKN020CB
     FM010100 23005KT P6SM BKN040
     FM010900 25005KT 5SM BR BKN009
     FM011500 27009KT P6SM BKN020
      AMD LTD TO CLD VIS AND WIND=

USA.gov is the U.S. government's official web portal to all federal, state and local government web resources and services.